Time;durP1;ratioP1;P1;durP2;ratioP2;P2;SDS_P1;SDS_P2;PMS_P1;PMS_P2;Temp;Humidity;BMP_temperature;BMP_pressure;BME280_temperature;BME280_humidity;BME280_pressure;Samples;Min_cycle;Max_cycle;Signal;HPM_P1;HPM_P2
2021/09/27 00:01:20;;;;;;;32.20;21.88;;;;;;;;;;4989568;28;20041;-69
2021/09/27 00:03:47;;;;;;;30.20;21.48;;;;;;;;;;4988363;28;20033;-69
2021/09/27 00:06:13;;;;;;;38.63;22.67;;;;;;;;;;4989948;28;20046;-69
2021/09/27 00:08:39;;;;;;;34.30;23.40;;;;;;;;;;4992572;28;20117;-69
2021/09/27 00:11:07;;;;;;;38.72;23.90;;;;;;;;;;4987045;28;20492;-69
2021/09/27 00:13:35;;;;;;;39.08;25.23;;;;;;;;;;5004081;28;20033;-69
2021/09/27 00:16:02;;;;;;;41.20;25.13;;;;;;;;;;4992288;28;20033;-69
2021/09/27 00:18:28;;;;;;;43.75;25.27;;;;;;;;;;5022450;28;20033;-69
2021/09/27 00:20:55;;;;;;;36.22;25.48;;;;;;;;;;4992267;28;20113;-69
2021/09/27 00:23:22;;;;;;;40.90;25.75;;;;;;;;;;4994475;28;20030;-69
2021/09/27 00:25:48;;;;;;;48.75;28.20;;;;;;;;;;4988997;28;20034;-69
2021/09/27 00:28:15;;;;;;;38.47;25.73;;;;;;;;;;4991718;28;20034;-69
2021/09/27 00:30:41;;;;;;;39.95;25.15;;;;;;;;;;4990138;28;20034;-69
2021/09/27 00:33:07;;;;;;;43.33;27.38;;;;;;;;;;4984837;28;20041;-69
2021/09/27 00:35:34;;;;;;;41.00;24.90;;;;;;;;;;4991382;28;20213;-69
2021/09/27 00:38:00;;;;;;;43.85;25.67;;;;;;;;;;4995256;28;20030;-69
2021/09/27 00:40:28;;;;;;;44.80;27.27;;;;;;;;;;5023234;28;20015;-69
2021/09/27 00:42:55;;;;;;;42.13;27.88;;;;;;;;;;4998487;28;20073;-69
2021/09/27 00:45:23;;;;;;;46.50;25.77;;;;;;;;;;4988716;28;20018;-69
2021/09/27 00:47:49;;;;;;;40.38;25.48;;;;;;;;;;4990316;28;20527;-69
2021/09/27 00:50:17;;;;;;;41.15;25.48;;;;;;;;;;4989176;28;20273;-69
2021/09/27 00:52:44;;;;;;;43.20;26.13;;;;;;;;;;4990278;28;20031;-69
2021/09/27 00:55:11;;;;;;;44.22;26.05;;;;;;;;;;4987897;28;20046;-69
2021/09/27 00:57:37;;;;;;;42.45;26.15;;;;;;;;;;4991108;28;20030;-69
2021/09/27 01:00:05;;;;;;;42.70;25.10;;;;;;;;;;5020534;28;20067;-69
2021/09/27 01:02:32;;;;;;;46.35;26.20;;;;;;;;;;4989247;28;20019;-69
2021/09/27 01:04:58;;;;;;;48.17;28.58;;;;;;;;;;4990934;28;20034;-69
2021/09/27 01:07:39;;;;;;;47.72;28.98;;;;;;;;;;4989994;28;20045;-69
2021/09/27 01:10:11;;;;;;;48.22;28.63;;;;;;;;;;4991489;28;20053;-69
2021/09/27 01:12:38;;;;;;;53.13;30.85;;;;;;;;;;4988816;28;20033;-69
2021/09/27 01:15:25;;;;;;;46.00;28.90;;;;;;;;;;4987990;28;20061;-69
2021/09/27 01:18:14;;;;;;;48.58;30.25;;;;;;;;;;4990489;28;20104;-69
2021/09/27 01:20:46;;;;;;;55.80;29.88;;;;;;;;;;4986065;28;20092;-69
2021/09/27 01:23:12;;;;;;;50.70;30.73;;;;;;;;;;4988660;28;20058;-69
2021/09/27 01:25:41;;;;;;;49.22;29.23;;;;;;;;;;4988576;28;20053;-69
2021/09/27 01:28:26;;;;;;;46.17;29.63;;;;;;;;;;4991341;28;20049;-69
2021/09/27 01:31:11;;;;;;;48.25;30.98;;;;;;;;;;5025621;28;20093;-69
2021/09/27 01:33:46;;;;;;;54.10;31.85;;;;;;;;;;4988399;28;20034;-69
2021/09/27 01:36:21;;;;;;;56.22;30.88;;;;;;;;;;4988687;28;20027;-69
2021/09/27 01:38:50;;;;;;;55.05;31.38;;;;;;;;;;4996644;28;20506;-69
2021/09/27 01:41:28;;;;;;;55.42;31.27;;;;;;;;;;4991935;28;20022;-69
2021/09/27 01:44:13;;;;;;;53.28;30.58;;;;;;;;;;4985362;28;20046;-69
2021/09/27 01:46:39;;;;;;;51.03;30.98;;;;;;;;;;4989037;28;20034;-69
2021/09/27 01:49:07;;;;;;;61.00;33.20;;;;;;;;;;4993584;28;20092;-69
2021/09/27 01:51:50;;;;;;;58.85;36.28;;;;;;;;;;4984960;28;20027;-69
2021/09/27 01:54:38;;;;;;;58.00;35.03;;;;;;;;;;4990335;28;20026;-69
2021/09/27 01:57:15;;;;;;;61.35;37.08;;;;;;;;;;4989200;28;20050;-70
2021/09/27 01:59:49;;;;;;;58.50;36.17;;;;;;;;;;4987753;28;20023;-70
2021/09/27 02:02:21;;;;;;;62.30;36.75;;;;;;;;;;4992435;28;20114;-69
2021/09/27 02:05:10;;;;;;;58.63;35.95;;;;;;;;;;4990056;28;20030;-69
2021/09/27 02:07:40;;;;;;;59.15;35.25;;;;;;;;;;4991095;28;20066;-69
2021/09/27 02:10:26;;;;;;;68.45;37.33;;;;;;;;;;4991461;28;20045;-69
2021/09/27 02:12:56;;;;;;;64.28;38.00;;;;;;;;;;4994592;28;20034;-69
2021/09/27 02:15:35;;;;;;;63.63;37.90;;;;;;;;;;4988559;28;20500;-69
2021/09/27 02:18:13;;;;;;;62.58;36.25;;;;;;;;;;4994740;28;20026;-69
2021/09/27 02:20:43;;;;;;;61.47;37.00;;;;;;;;;;4991034;28;20069;-69
2021/09/27 02:23:09;;;;;;;61.50;36.30;;;;;;;;;;4988971;28;20064;-69
2021/09/27 02:25:37;;;;;;;61.15;37.15;;;;;;;;;;4991359;28;20038;-69
2021/09/27 02:28:29;;;;;;;61.38;36.45;;;;;;;;;;4991466;28;20026;-69
2021/09/27 02:31:15;;;;;;;62.50;37.45;;;;;;;;;;4987777;28;20082;-69
2021/09/27 02:33:59;;;;;;;75.70;36.22;;;;;;;;;;4984373;28;20018;-69
2021/09/27 02:36:36;;;;;;;66.80;38.38;;;;;;;;;;4989204;28;20023;-69
2021/09/27 02:39:15;;;;;;;63.30;37.30;;;;;;;;;;4995471;28;20113;-69
2021/09/27 02:41:47;;;;;;;66.38;39.38;;;;;;;;;;4985535;28;20034;-69
2021/09/27 02:44:13;;;;;;;65.75;36.67;;;;;;;;;;4982551;28;20022;-69
2021/09/27 02:46:52;;;;;;;65.53;37.00;;;;;;;;;;4996246;28;20062;-69
2021/09/27 02:49:19;;;;;;;66.10;35.83;;;;;;;;;;5001176;28;20096;-69
2021/09/27 02:51:47;;;;;;;61.35;36.20;;;;;;;;;;4978481;28;20027;-69
2021/09/27 02:54:18;;;;;;;64.38;36.97;;;;;;;;;;4987432;28;20036;-69
2021/09/27 02:57:08;;;;;;;63.88;36.30;;;;;;;;;;4989314;28;20046;-69
2021/09/27 02:59:52;;;;;;;64.57;36.92;;;;;;;;;;4999405;28;20030;-69
2021/09/27 03:02:34;;;;;;;61.85;37.67;;;;;;;;;;4988989;28;20029;-69
2021/09/27 03:05:03;;;;;;;70.10;37.95;;;;;;;;;;4992429;28;20495;-69
2021/09/27 03:07:38;;;;;;;65.43;36.63;;;;;;;;;;4993235;28;20030;-69
2021/09/27 03:10:13;;;;;;;65.82;37.67;;;;;;;;;;4997069;28;20030;-69
2021/09/27 03:12:59;;;;;;;63.42;37.35;;;;;;;;;;4991030;28;20034;-69
2021/09/27 03:15:25;;;;;;;67.32;37.13;;;;;;;;;;4995545;28;20395;-69
2021/09/27 03:17:51;;;;;;;65.30;37.55;;;;;;;;;;4993040;28;20026;-69
2021/09/27 03:20:23;;;;;;;65.47;38.17;;;;;;;;;;5000612;28;20022;-69
2021/09/27 03:23:08;;;;;;;66.63;37.80;;;;;;;;;;4997429;28;20022;-69
2021/09/27 03:25:40;;;;;;;66.30;38.20;;;;;;;;;;4997490;28;20033;-69
2021/09/27 03:28:13;;;;;;;62.95;36.80;;;;;;;;;;4992746;28;20022;-69
2021/09/27 03:30:47;;;;;;;63.78;36.90;;;;;;;;;;4997505;28;20018;-69
2021/09/27 03:33:19;;;;;;;71.55;39.97;;;;;;;;;;4991348;28;20041;-69
2021/09/27 03:35:54;;;;;;;67.93;37.70;;;;;;;;;;4992613;28;20041;-69
2021/09/27 03:38:33;;;;;;;68.13;38.30;;;;;;;;;;4986208;28;20027;-69
2021/09/27 03:41:02;;;;;;;64.63;37.97;;;;;;;;;;5000639;28;20062;-70
2021/09/27 03:43:43;;;;;;;67.75;37.53;;;;;;;;;;4997047;28;20030;-69
2021/09/27 03:46:21;;;;;;;66.10;37.17;;;;;;;;;;4994255;28;20033;-69
2021/09/27 03:48:50;;;;;;;60.20;37.08;;;;;;;;;;4994160;28;20030;-69
2021/09/27 03:51:18;;;;;;;69.68;37.95;;;;;;;;;;4991736;28;20026;-69
2021/09/27 03:53:48;;;;;;;63.70;34.95;;;;;;;;;;4989357;28;20042;-69
2021/09/27 03:56:26;;;;;;;61.25;36.05;;;;;;;;;;4990353;28;20133;-69
2021/09/27 03:58:58;;;;;;;60.97;36.92;;;;;;;;;;5024898;28;20113;-69
2021/09/27 04:01:24;;;;;;;;;;;;;;;;;;4992974;28;20109;-69
2021/09/27 04:04:04;;;;;;;61.00;34.65;;;;;;;;;;4991293;28;19972;-69
2021/09/27 04:06:43;;;;;;;60.42;34.05;;;;;;;;;;4991803;28;20026;-69
2021/09/27 04:09:28;;;;;;;55.90;33.40;;;;;;;;;;4991323;28;20057;-69
2021/09/27 04:12:13;;;;;;;58.03;33.45;;;;;;;;;;4992193;28;20525;-69
2021/09/27 04:14:42;;;;;;;53.00;31.45;;;;;;;;;;4990455;28;20117;-69
2021/09/27 04:17:17;;;;;;;49.67;31.05;;;;;;;;;;4990971;28;20039;-69
2021/09/27 04:19:46;;;;;;;49.95;30.27;;;;;;;;;;4995041;28;20027;-69
2021/09/27 04:22:22;;;;;;;58.90;32.47;;;;;;;;;;4995129;28;20074;-69
2021/09/27 04:24:57;;;;;;;53.42;32.28;;;;;;;;;;4987766;28;20038;-69
2021/09/27 04:27:36;;;;;;;54.60;30.67;;;;;;;;;;4989179;28;20027;-69
2021/09/27 04:30:11;;;;;;;51.85;30.10;;;;;;;;;;4991249;28;20034;-69
2021/09/27 04:32:46;;;;;;;51.08;31.50;;;;;;;;;;4998766;28;20045;-69
2021/09/27 04:35:17;;;;;;;53.35;32.97;;;;;;;;;;4989517;28;20050;-69
2021/09/27 04:37:44;;;;;;;54.50;30.48;;;;;;;;;;4990032;28;20034;-69
2021/09/27 04:40:12;;;;;;;54.65;30.67;;;;;;;;;;4994921;28;20030;-69
2021/09/27 04:42:44;;;;;;;54.53;32.35;;;;;;;;;;4992683;28;20169;-69
2021/09/27 04:45:28;;;;;;;57.85;31.95;;;;;;;;;;4991042;28;20376;-69
2021/09/27 04:48:06;;;;;;;52.60;31.23;;;;;;;;;;4993434;28;20037;-68
2021/09/27 04:50:41;;;;;;;56.70;33.70;;;;;;;;;;4989781;28;20027;-69
2021/09/27 04:53:07;;;;;;;55.92;31.60;;;;;;;;;;4992222;28;20034;-69
2021/09/27 04:55:51;;;;;;;53.25;32.55;;;;;;;;;;4996362;28;20512;-69
2021/09/27 04:58:17;;;;;;;51.40;32.05;;;;;;;;;;4993841;28;20022;-69
2021/09/27 05:01:01;;;;;;;51.72;32.45;;;;;;;;;;4992857;28;20034;-69
2021/09/27 05:03:27;;;;;;;52.08;32.53;;;;;;;;;;5028254;28;20045;-69
2021/09/27 05:05:53;;;;;;;55.15;31.95;;;;;;;;;;4998791;28;20022;-69
2021/09/27 05:08:31;;;;;;;57.08;33.72;;;;;;;;;;4997477;28;20053;-68
2021/09/27 05:11:00;;;;;;;57.35;35.30;;;;;;;;;;4994028;28;20038;-69
2021/09/27 05:13:49;;;;;;;52.47;31.30;;;;;;;;;;4992919;28;20064;-69
2021/09/27 05:16:15;;;;;;;52.50;31.98;;;;;;;;;;4990851;28;20018;-68
2021/09/27 05:18:54;;;;;;;54.28;33.95;;;;;;;;;;4990380;28;20034;-69
2021/09/27 05:21:44;;;;;;;51.17;31.95;;;;;;;;;;4977929;28;20398;-69
2021/09/27 05:27:07;;;;;;;53.80;31.92;;;;;;;;;;4175637;26;20051;-67
2021/09/27 05:30:03;;;;;;;55.17;32.90;;;;;;;;;;4972833;28;20027;-68
2021/09/27 05:32:32;;;;;;;54.45;32.80;;;;;;;;;;4957855;28;20039;-67
2021/09/27 05:35:17;;;;;;;56.20;32.75;;;;;;;;;;4968298;28;20039;-67
2021/09/27 05:37:43;;;;;;;60.42;32.70;;;;;;;;;;4964976;28;20057;-67
2021/09/27 05:40:15;;;;;;;64.93;34.50;;;;;;;;;;4971987;28;20066;-67
2021/09/27 05:42:47;;;;;;;65.07;34.33;;;;;;;;;;4968222;28;20022;-67
2021/09/27 05:45:19;;;;;;;64.03;34.90;;;;;;;;;;4961434;28;20063;-67
2021/09/27 05:47:57;;;;;;;61.63;32.15;;;;;;;;;;4970428;28;20447;-68
2021/09/27 05:50:23;;;;;;;60.25;35.90;;;;;;;;;;4971009;28;20451;-67
2021/09/27 05:52:49;;;;;;;69.65;35.72;;;;;;;;;;4978698;28;20051;-67
2021/09/27 05:55:26;;;;;;;65.47;37.28;;;;;;;;;;4964692;28;20090;-68
2021/09/27 05:57:56;;;;;;;63.42;35.10;;;;;;;;;;4965860;28;20118;-67
2021/09/27 06:00:34;;;;;;;75.60;42.25;;;;;;;;;;4971044;28;20019;-67
2021/09/27 06:03:09;;;;;;;76.43;38.92;;;;;;;;;;4971269;28;20113;-68
2021/09/27 06:05:38;;;;;;;73.03;39.40;;;;;;;;;;4965509;28;20038;-68
2021/09/27 06:08:15;;;;;;;69.43;42.03;;;;;;;;;;4973983;28;20023;-67
2021/09/27 06:10:46;;;;;;;78.10;39.47;;;;;;;;;;4971471;28;20486;-68
2021/09/27 06:13:12;;;;;;;79.22;43.05;;;;;;;;;;4966906;28;20031;-68
2021/09/27 06:15:44;;;;;;;82.10;40.90;;;;;;;;;;4969378;28;20026;-68
2021/09/27 06:18:16;;;;;;;79.15;40.70;;;;;;;;;;4968020;28;20023;-68
2021/09/27 06:20:48;;;;;;;83.18;43.05;;;;;;;;;;4969711;28;20088;-67
2021/09/27 06:23:14;;;;;;;;;;;;;;;;;;4964838;28;20091;-67
2021/09/27 06:25:52;;;;;;;79.95;41.85;;;;;;;;;;4965407;28;20159;-68
2021/09/27 06:28:33;;;;;;;79.70;42.20;;;;;;;;;;4967341;28;20062;-68
2021/09/27 06:31:05;;;;;;;85.17;45.27;;;;;;;;;;4968432;28;20039;-67
2021/09/27 06:33:49;;;;;;;76.57;40.65;;;;;;;;;;4966738;28;20038;-68
2021/09/27 06:36:17;;;;;;;78.85;40.80;;;;;;;;;;4967462;28;20026;-67
2021/09/27 06:38:43;;;;;;;78.35;41.17;;;;;;;;;;4971968;28;20046;-68
2021/09/27 06:41:19;;;;;;;77.30;39.40;;;;;;;;;;4968097;28;20038;-68
2021/09/27 06:43:46;;;;;;;73.25;38.28;;;;;;;;;;4966045;28;20503;-68
2021/09/27 06:46:12;;;;;;;77.25;40.63;;;;;;;;;;4967968;28;20042;-67
2021/09/27 06:48:38;;;;;;;72.03;38.05;;;;;;;;;;4965898;28;20047;-68
2021/09/27 06:51:04;;;;;;;72.40;38.47;;;;;;;;;;4968365;28;20027;-68
2021/09/27 06:53:30;;;;;;;71.82;37.13;;;;;;;;;;4963511;28;20038;-67
2021/09/27 06:55:58;;;;;;;71.97;39.40;;;;;;;;;;4963888;28;20054;-68
2021/09/27 06:58:24;;;;;;;69.70;39.17;;;;;;;;;;4970411;28;20042;-67
2021/09/27 07:00:51;;;;;;;71.07;38.88;;;;;;;;;;4967320;28;20487;-67
2021/09/27 07:03:18;;;;;;;70.55;38.75;;;;;;;;;;4969758;28;20035;-67
2021/09/27 07:05:44;;;;;;;70.03;39.85;;;;;;;;;;4967596;28;20550;-67
2021/09/27 07:08:10;;;;;;;76.68;39.65;;;;;;;;;;4963581;28;20400;-68
2021/09/27 07:10:36;;;;;;;64.80;38.10;;;;;;;;;;4971587;28;20046;-68
2021/09/27 07:13:02;;;;;;;64.68;36.42;;;;;;;;;;4963165;28;20454;-68
2021/09/27 07:15:28;;;;;;;58.55;35.42;;;;;;;;;;4968528;28;20022;-68
2021/09/27 07:17:54;;;;;;;63.22;37.67;;;;;;;;;;4971563;28;20268;-67
2021/09/27 07:20:22;;;;;;;60.30;35.20;;;;;;;;;;4960967;28;20093;-68
2021/09/27 07:22:48;;;;;;;55.50;34.15;;;;;;;;;;4971818;28;20031;-68
2021/09/27 07:25:16;;;;;;;62.03;34.83;;;;;;;;;;4967629;28;20803;-68
2021/09/27 07:27:42;;;;;;;50.80;32.42;;;;;;;;;;4962665;28;20407;-68
2021/09/27 07:30:09;;;;;;;53.95;34.60;;;;;;;;;;4966024;28;20511;-68
2021/09/27 07:32:35;;;;;;;51.80;32.58;;;;;;;;;;4967552;28;20034;-67
2021/09/27 07:35:02;;;;;;;52.33;34.10;;;;;;;;;;4970251;28;20034;-69
2021/09/27 07:37:28;;;;;;;50.53;33.15;;;;;;;;;;4975332;28;20285;-68
2021/09/27 07:39:54;;;;;;;49.15;31.70;;;;;;;;;;4971952;28;20534;-67
2021/09/27 07:42:20;;;;;;;55.50;32.28;;;;;;;;;;4967208;28;20023;-68
2021/09/27 07:44:46;;;;;;;52.10;31.73;;;;;;;;;;4971939;28;20031;-68
2021/09/27 07:47:12;;;;;;;45.22;30.95;;;;;;;;;;4965002;28;20058;-68
2021/09/27 07:49:38;;;;;;;45.33;30.00;;;;;;;;;;4966896;28;20038;-68
2021/09/27 07:52:05;;;;;;;40.15;27.83;;;;;;;;;;4970234;28;20034;-68
2021/09/27 07:54:31;;;;;;;41.35;26.77;;;;;;;;;;4971771;28;20358;-67
2021/09/27 07:56:57;;;;;;;46.60;29.92;;;;;;;;;;4973948;28;20031;-68
2021/09/27 07:59:23;;;;;;;41.20;25.23;;;;;;;;;;4966623;28;20446;-70
2021/09/27 08:01:49;;;;;;;30.80;22.50;;;;;;;;;;4974834;28;20027;-68
2021/09/27 08:04:16;;;;;;;34.97;21.95;;;;;;;;;;4968794;28;20551;-68
2021/09/27 08:06:43;;;;;;;35.63;21.55;;;;;;;;;;4969453;28;20034;-68
2021/09/27 08:09:09;;;;;;;32.22;19.65;;;;;;;;;;4966463;28;20436;-68
2021/09/27 08:11:36;;;;;;;24.90;18.13;;;;;;;;;;4974769;28;20022;-68
2021/09/27 08:14:02;;;;;;;28.95;19.27;;;;;;;;;;4973160;28;20442;-68
2021/09/27 08:16:28;;;;;;;24.30;17.10;;;;;;;;;;4966246;28;20494;-68
2021/09/27 08:18:54;;;;;;;23.92;16.48;;;;;;;;;;4970792;28;20415;-69
2021/09/27 08:21:22;;;;;;;24.90;16.58;;;;;;;;;;4971225;28;20030;-68
2021/09/27 08:23:48;;;;;;;31.73;15.57;;;;;;;;;;4972828;28;20117;-68
2021/09/27 08:26:14;;;;;;;25.55;14.60;;;;;;;;;;4970989;28;20787;-68
2021/09/27 08:28:42;;;;;;;19.30;14.82;;;;;;;;;;4966041;28;20018;-68
2021/09/27 08:31:14;;;;;;;23.55;15.02;;;;;;;;;;4973698;28;20110;-67
2021/09/27 08:33:41;;;;;;;18.52;13.43;;;;;;;;;;4973915;28;20065;-68
2021/09/27 08:36:08;;;;;;;18.10;13.40;;;;;;;;;;4969057;28;20488;-68
2021/09/27 08:38:38;;;;;;;20.20;12.82;;;;;;;;;;4970965;28;20026;-69
2021/09/27 08:41:10;;;;;;;20.63;12.60;;;;;;;;;;4973939;28;20373;-69
2021/09/27 08:43:55;;;;;;;20.83;14.20;;;;;;;;;;4965660;28;20023;-68
2021/09/27 08:46:24;;;;;;;17.48;11.63;;;;;;;;;;4958588;28;20034;-68
2021/09/27 08:48:57;;;;;;;19.55;11.80;;;;;;;;;;4969860;28;20027;-69
2021/09/27 08:51:23;;;;;;;17.80;11.63;;;;;;;;;;4971237;28;20101;-69
2021/09/27 08:53:51;;;;;;;16.38;10.32;;;;;;;;;;4973093;28;20027;-68
2021/09/27 08:56:27;;;;;;;15.82;11.32;;;;;;;;;;4961241;28;20026;-68
2021/09/27 08:58:53;;;;;;;18.67;11.32;;;;;;;;;;4973549;28;20019;-67
2021/09/27 09:01:22;;;;;;;18.42;12.93;;;;;;;;;;4969738;28;20031;-68
2021/09/27 09:03:48;;;;;;;16.10;11.52;;;;;;;;;;4969100;28;20038;-69
2021/09/27 09:06:22;;;;;;;15.23;10.10;;;;;;;;;;4953186;28;20038;-68
2021/09/27 09:08:57;;;;;;;17.48;11.18;;;;;;;;;;4973633;28;20054;-69
2021/09/27 09:11:32;;;;;;;16.30;10.20;;;;;;;;;;4973063;28;20121;-68
2021/09/27 09:14:21;;;;;;;19.95;9.65;;;;;;;;;;4966048;28;20034;-69
2021/09/27 09:16:49;;;;;;;18.67;9.70;;;;;;;;;;4965350;28;20043;-68
2021/09/27 09:19:17;;;;;;;18.55;8.63;;;;;;;;;;4971559;28;20130;-69
2021/09/27 09:21:47;;;;;;;14.52;8.70;;;;;;;;;;4959488;28;20067;-68
2021/09/27 09:24:15;;;;;;;14.65;8.95;;;;;;;;;;4965268;28;20022;-68
2021/09/27 09:26:47;;;;;;;15.07;7.90;;;;;;;;;;4964985;28;20114;-70
2021/09/27 09:29:13;;;;;;;;;;;;;;;;;;4972207;28;20027;-69
2021/09/27 09:31:44;;;;;;;18.85;8.32;;;;;;;;;;4970741;28;19961;-69
2021/09/27 09:34:20;;;;;;;16.08;7.97;;;;;;;;;;4969149;28;20085;-69
2021/09/27 09:36:50;;;;;;;17.48;8.82;;;;;;;;;;4967705;28;20111;-69
2021/09/27 09:39:16;;;;;;;14.57;8.60;;;;;;;;;;4963392;28;20258;-69
2021/09/27 09:41:44;;;;;;;15.90;8.00;;;;;;;;;;4968332;28;20221;-69
2021/09/27 09:44:29;;;;;;;13.00;8.63;;;;;;;;;;4961297;28;20123;-69
2021/09/27 09:47:04;;;;;;;14.35;7.93;;;;;;;;;;4970792;28;20105;-69
2021/09/27 09:49:31;;;;;;;15.63;7.65;;;;;;;;;;4971679;28;20111;-68
2021/09/27 09:51:59;;;;;;;14.13;7.68;;;;;;;;;;4970856;28;20034;-69
2021/09/27 09:54:27;;;;;;;13.50;7.60;;;;;;;;;;4963513;28;20192;-69
2021/09/27 09:57:06;;;;;;;10.18;6.78;;;;;;;;;;4972481;28;20023;-69
2021/09/27 09:59:37;;;;;;;14.13;6.78;;;;;;;;;;4961345;28;20041;-69
2021/09/27 10:02:07;;;;;;;13.57;6.27;;;;;;;;;;4961325;28;20031;-70
2021/09/27 10:04:42;;;;;;;16.23;6.50;;;;;;;;;;4960611;28;20134;-70
2021/09/27 10:07:16;;;;;;;15.13;6.75;;;;;;;;;;4970907;28;20038;-69
2021/09/27 10:09:55;;;;;;;11.40;6.50;;;;;;;;;;4972260;28;20038;-69
2021/09/27 10:12:40;;;;;;;13.85;6.70;;;;;;;;;;4964655;28;20030;-69
2021/09/27 10:15:07;;;;;;;11.77;6.47;;;;;;;;;;4968691;28;20035;-69
2021/09/27 10:17:37;;;;;;;13.85;7.10;;;;;;;;;;4967142;28;20098;-69
2021/09/27 10:20:09;;;;;;;10.75;6.05;;;;;;;;;;4965363;28;20142;-68
2021/09/27 10:22:39;;;;;;;12.10;6.65;;;;;;;;;;4964143;28;20098;-69
2021/09/27 10:25:24;;;;;;;15.52;6.47;;;;;;;;;;4964035;28;20400;-69
2021/09/27 10:27:52;;;;;;;12.48;6.30;;;;;;;;;;4972048;28;20042;-68
2021/09/27 10:30:21;;;;;;;12.48;5.53;;;;;;;;;;4970105;28;20027;-70
2021/09/27 10:32:50;;;;;;;15.77;5.97;;;;;;;;;;4972328;28;20022;-69
2021/09/27 10:35:19;;;;;;;16.48;6.50;;;;;;;;;;4967083;28;20026;-69
2021/09/27 10:37:46;;;;;;;13.57;6.20;;;;;;;;;;4964050;28;20034;-69
2021/09/27 10:40:16;;;;;;;9.25;5.15;;;;;;;;;;4961559;28;20392;-68
2021/09/27 10:42:47;;;;;;;8.40;5.60;;;;;;;;;;4967133;28;20034;-69
2021/09/27 10:45:14;;;;;;;11.57;5.95;;;;;;;;;;4967212;28;20110;-68
2021/09/27 10:47:43;;;;;;;10.82;5.38;;;;;;;;;;4972195;28;20049;-69
2021/09/27 10:50:12;;;;;;;9.23;5.43;;;;;;;;;;4969311;28;20117;-68
2021/09/27 10:52:50;;;;;;;7.97;4.20;;;;;;;;;;4971724;28;20027;-69
2021/09/27 10:55:16;;;;;;;11.43;4.78;;;;;;;;;;4963530;28;20032;-69
2021/09/27 10:57:55;;;;;;;14.18;5.93;;;;;;;;;;4966918;28;20077;-69
2021/09/27 11:00:30;;;;;;;13.30;6.53;;;;;;;;;;4957807;28;20018;-68
2021/09/27 11:03:00;;;;;;;17.30;7.00;;;;;;;;;;4970090;28;20038;-69
2021/09/27 11:05:47;;;;;;;12.90;5.32;;;;;;;;;;4967687;28;20400;-70
2021/09/27 11:08:15;;;;;;;9.63;4.57;;;;;;;;;;4965970;28;20035;-69
2021/09/27 11:10:50;;;;;;;7.38;5.03;;;;;;;;;;4974877;28;20487;-70
2021/09/27 11:13:33;;;;;;;14.50;5.07;;;;;;;;;;4973859;28;20031;-71
2021/09/27 11:16:01;;;;;;;12.88;6.05;;;;;;;;;;4964250;28;20031;-70
2021/09/27 11:18:32;;;;;;;8.00;4.07;;;;;;;;;;4971294;28;20023;-70
2021/09/27 11:21:01;;;;;;;14.30;4.38;;;;;;;;;;4971254;28;20037;-73
2021/09/27 11:23:38;;;;;;;8.68;4.40;;;;;;;;;;4975370;28;20042;-72
2021/09/27 11:26:27;;;;;;;6.50;3.63;;;;;;;;;;4971699;28;20043;-75
2021/09/27 11:29:12;;;;;;;8.57;4.13;;;;;;;;;;4969928;28;20050;-71
2021/09/27 11:31:42;;;;;;;13.18;4.57;;;;;;;;;;4973598;28;20073;-73
2021/09/27 11:34:27;;;;;;;10.50;4.43;;;;;;;;;;4965010;28;20031;-72
2021/09/27 11:37:07;;;;;;;9.27;4.50;;;;;;;;;;4973812;28;20442;-73
2021/09/27 11:39:37;;;;;;;10.55;4.88;;;;;;;;;;4969072;28;20062;-74
2021/09/27 11:42:25;;;;;;;9.63;4.95;;;;;;;;;;4972275;28;20027;-74
2021/09/27 11:44:53;;;;;;;11.50;5.55;;;;;;;;;;4968273;28;20494;-72
2021/09/27 11:47:45;;;;;;;8.75;5.18;;;;;;;;;;4975121;28;20030;-73
2021/09/27 11:50:45;;;;;;;6.50;4.70;;;;;;;;;;4973690;28;20078;-74
2021/09/27 11:53:20;;;;;;;10.52;4.97;;;;;;;;;;4966591;28;20031;-73
2021/09/27 11:55:48;;;;;;;11.93;5.53;;;;;;;;;;4968515;28;20043;-73
2021/09/27 11:58:15;;;;;;;11.27;6.18;;;;;;;;;;4966198;28;20038;-73
2021/09/27 12:00:45;;;;;;;12.10;4.63;;;;;;;;;;4970324;28;20512;-76
2021/09/27 12:03:24;;;;;;;14.45;5.13;;;;;;;;;;4967464;28;20043;-74
2021/09/27 12:06:00;;;;;;;9.13;6.10;;;;;;;;;;4961897;28;20057;-74
2021/09/27 12:08:38;;;;;;;10.00;5.70;;;;;;;;;;4970032;28;20514;-75
2021/09/27 12:11:09;;;;;;;10.85;5.30;;;;;;;;;;4965540;28;20086;-74
2021/09/27 12:13:46;;;;;;;8.07;5.57;;;;;;;;;;4967128;28;20500;-74
2021/09/27 12:16:16;;;;;;;12.65;6.47;;;;;;;;;;4962303;28;20396;-73
2021/09/27 12:18:54;;;;;;;8.95;5.00;;;;;;;;;;4965933;28;20443;-75
2021/09/27 12:21:23;;;;;;;12.00;6.25;;;;;;;;;;4969310;28;20034;-75
2021/09/27 12:23:55;;;;;;;11.40;6.15;;;;;;;;;;4962823;28;20046;-74
2021/09/27 12:26:23;;;;;;;9.77;5.45;;;;;;;;;;4964298;28;20077;-75
2021/09/27 12:28:49;;;;;;;9.00;4.60;;;;;;;;;;4964303;28;20312;-75
2021/09/27 12:31:20;;;;;;;12.07;4.30;;;;;;;;;;4966002;28;20220;-76
2021/09/27 12:33:46;;;;;;;12.60;3.60;;;;;;;;;;4961578;28;20400;-73
2021/09/27 12:36:18;;;;;;;22.30;4.72;;;;;;;;;;4960266;28;20463;-75
2021/09/27 12:38:49;;;;;;;22.30;4.18;;;;;;;;;;4965951;28;20035;-75
2021/09/27 12:41:15;;;;;;;20.48;3.17;;;;;;;;;;4965580;28;20027;-74
2021/09/27 12:43:41;;;;;;;19.25;3.85;;;;;;;;;;4963065;28;20433;-75
2021/09/27 12:46:17;;;;;;;18.98;3.17;;;;;;;;;;4965149;28;20123;-74
2021/09/27 12:48:46;;;;;;;24.50;5.40;;;;;;;;;;4963903;28;20507;-74
2021/09/27 12:51:15;;;;;;;23.67;4.05;;;;;;;;;;4965268;28;20070;-75
2021/09/27 12:53:44;;;;;;;26.67;4.40;;;;;;;;;;4963179;28;20529;-76
2021/09/27 12:56:11;;;;;;;16.42;2.85;;;;;;;;;;4969865;28;20078;-74
2021/09/27 12:58:43;;;;;;;18.58;3.40;;;;;;;;;;4971161;28;20451;-74
2021/09/27 13:01:12;;;;;;;24.63;4.07;;;;;;;;;;4963843;28;20031;-76
2021/09/27 13:03:42;;;;;;;25.08;4.00;;;;;;;;;;4972138;28;20099;-78
2021/09/27 13:06:11;;;;;;;16.77;3.58;;;;;;;;;;4968884;28;20122;-73
2021/09/27 13:08:45;;;;;;;16.02;2.95;;;;;;;;;;4973185;28;20054;-77
2021/09/27 13:11:21;;;;;;;17.52;2.80;;;;;;;;;;4972955;28;20109;-73
2021/09/27 13:13:59;;;;;;;17.02;2.42;;;;;;;;;;4958352;28;20031;-77
2021/09/27 13:16:27;;;;;;;24.13;4.22;;;;;;;;;;4957188;28;20030;-74
2021/09/27 13:18:53;;;;;;;13.88;2.78;;;;;;;;;;4917187;28;20044;-77
2021/09/27 13:21:24;;;;;;;16.50;3.20;;;;;;;;;;4913155;29;20111;-74
2021/09/27 13:23:50;;;;;;;13.65;2.55;;;;;;;;;;4915051;29;20068;-72
2021/09/27 13:26:32;;;;;;;12.60;2.45;;;;;;;;;;4911254;29;20150;-74
2021/09/27 13:28:59;;;;;;;11.63;2.38;;;;;;;;;;4912191;29;20191;-78
2021/09/27 13:31:28;;;;;;;14.07;2.33;;;;;;;;;;4912897;29;20119;-73
2021/09/27 13:34:03;;;;;;;13.10;2.10;;;;;;;;;;4913104;29;20090;-76
2021/09/27 13:36:29;;;;;;;14.10;2.08;;;;;;;;;;4910020;29;20028;-74
2021/09/27 13:38:57;;;;;;;15.60;2.85;;;;;;;;;;4914542;29;20504;-73
2021/09/27 13:41:26;;;;;;;10.60;2.90;;;;;;;;;;4913627;29;20485;-72
2021/09/27 13:43:54;;;;;;;11.52;2.05;;;;;;;;;;4914892;29;20083;-74
2021/09/27 13:46:23;;;;;;;10.35;1.92;;;;;;;;;;4908820;29;20140;-73
2021/09/27 13:48:49;;;;;;;11.43;2.40;;;;;;;;;;4914053;29;20036;-76
2021/09/27 13:51:17;;;;;;;22.02;1.98;;;;;;;;;;4912325;29;20032;-72
2021/09/27 13:54:04;;;;;;;15.27;2.42;;;;;;;;;;4913129;29;20424;-74
2021/09/27 13:56:32;;;;;;;15.30;3.20;;;;;;;;;;4906744;29;20024;-73
2021/09/27 13:58:58;;;;;;;9.35;1.77;;;;;;;;;;4914023;29;20040;-74
2021/09/27 14:01:24;;;;;;;9.00;2.25;;;;;;;;;;4912404;29;20027;-77
2021/09/27 14:03:50;;;;;;;10.75;1.30;;;;;;;;;;4913893;29;20032;-74
2021/09/27 14:06:18;;;;;;;7.28;1.50;;;;;;;;;;4908614;29;20032;-71
2021/09/27 14:08:45;;;;;;;6.85;1.33;;;;;;;;;;4914138;29;20036;-72
2021/09/27 14:11:11;;;;;;;8.02;1.65;;;;;;;;;;4913740;29;20032;-71
2021/09/27 14:13:37;;;;;;;8.77;1.88;;;;;;;;;;4914026;29;20446;-72
2021/09/27 14:16:08;;;;;;;9.93;1.80;;;;;;;;;;4910976;29;20405;-71
2021/09/27 14:18:35;;;;;;;6.13;1.70;;;;;;;;;;4913866;29;20036;-73
2021/09/27 14:21:02;;;;;;;10.93;1.88;;;;;;;;;;4910643;29;20067;-72
2021/09/27 14:23:28;;;;;;;13.98;1.90;;;;;;;;;;4914302;29;20024;-71
2021/09/27 14:25:54;;;;;;;11.07;1.75;;;;;;;;;;4909970;29;20410;-73
2021/09/27 14:28:21;;;;;;;5.53;1.30;;;;;;;;;;4912605;29;20398;-74
2021/09/27 14:30:47;;;;;;;8.73;1.48;;;;;;;;;;4911510;29;20517;-72
2021/09/27 14:33:13;;;;;;;10.63;1.65;;;;;;;;;;4913468;29;20468;-73
2021/09/27 14:35:40;;;;;;;8.85;1.30;;;;;;;;;;4909666;29;20039;-72
2021/09/27 14:38:07;;;;;;;9.20;1.40;;;;;;;;;;4912390;29;20035;-73
2021/09/27 14:40:33;;;;;;;6.00;1.42;;;;;;;;;;4911571;29;20147;-73
2021/09/27 14:42:59;;;;;;;9.38;1.52;;;;;;;;;;4906992;29;20314;-74
2021/09/27 14:45:26;;;;;;;10.57;1.40;;;;;;;;;;4911846;29;20032;-73
2021/09/27 14:47:52;;;;;;;15.23;2.25;;;;;;;;;;4914470;29;20033;-74
2021/09/27 14:50:21;;;;;;;11.88;2.25;;;;;;;;;;4910383;29;20024;-73
2021/09/27 14:52:47;;;;;;;8.15;1.20;;;;;;;;;;4911285;29;20056;-75